Time;durP1;ratioP1;P1;durP2;ratioP2;P2;SDS_P1;SDS_P2;PMS_P1;PMS_P2;Temp;Humidity;BMP_temperature;BMP_pressure;BME280_temperature;BME280_humidity;BME280_pressure;Samples;Min_cycle;Max_cycle;Signal;HPM_P1;HPM_P2
2023/01/22 00:01:21;;;;;;;12.87;10.47;;;1.20;96.70;;;-0.03;89.63;102315.97;5030147;28;20203;-73
2023/01/22 00:03:49;;;;;;;14.13;10.77;;;1.10;96.90;;;-0.03;89.46;102325.66;5030215;28;20615;-74
2023/01/22 00:06:17;;;;;;;15.07;10.97;;;1.10;97.00;;;0.01;89.39;102316.72;5029913;28;20206;-74
2023/01/22 00:08:48;;;;;;;15.57;11.10;;;1.10;97.10;;;0.00;89.50;102313.22;5030435;28;20234;-74
2023/01/22 00:11:17;;;;;;;16.70;11.67;;;1.10;97.00;;;0.01;89.45;102316.72;5029987;28;20230;-73
2023/01/22 00:13:46;;;;;;;15.07;11.67;;;1.10;97.10;;;-0.02;89.59;102311.56;5030068;28;20715;-74
2023/01/22 00:16:16;;;;;;;14.63;10.80;;;1.10;97.20;;;0.01;89.77;102316.72;5029760;28;20689;-74
2023/01/22 00:18:44;;;;;;;17.30;11.57;;;1.10;97.20;;;-0.07;90.54;102303.00;5030305;28;20265;-74
2023/01/22 00:21:13;;;;;;;15.37;11.20;;;1.10;97.20;;;-0.05;90.19;102307.28;5029911;28;20575;-74
2023/01/22 00:23:41;;;;;;;15.13;10.90;;;1.10;97.30;;;-0.04;90.81;102310.78;5030286;28;20265;-74
2023/01/22 00:26:14;;;;;;;14.67;11.07;;;1.10;97.30;;;-0.02;90.88;102307.19;5029230;28;20218;-74
2023/01/22 00:28:44;;;;;;;16.43;11.13;;;1.10;97.40;;;-0.07;90.17;102298.56;5030186;28;20242;-74
2023/01/22 00:31:13;;;;;;;14.47;11.57;;;1.10;97.40;;;-0.07;90.65;102306.47;5029790;28;20238;-74
2023/01/22 00:33:43;;;;;;;14.57;10.90;;;1.00;97.40;;;-0.03;90.61;102305.44;5029533;28;20207;-74
2023/01/22 00:36:15;;;;;;;16.00;10.63;;;1.10;97.60;;;-0.02;90.94;102301.03;5029716;28;20297;-73
2023/01/22 00:38:43;;;;;;;16.07;11.50;;;1.10;97.50;;;-0.05;91.01;102291.50;5029693;28;20238;-74
2023/01/22 00:41:14;;;;;;;16.20;11.17;;;1.10;97.60;;;-0.04;90.92;102302.88;5029723;28;20206;-73
2023/01/22 00:43:43;;;;;;;16.50;11.37;;;1.10;97.70;;;-0.07;90.59;102297.72;5029472;28;20210;-74
2023/01/22 00:46:15;;;;;;;15.07;10.70;;;1.10;97.70;;;-0.09;90.41;102296.91;5029641;28;20213;-74
2023/01/22 00:48:45;;;;;;;19.60;12.17;;;1.00;97.80;;;-0.15;91.89;102297.13;5029218;28;20258;-75
2023/01/22 00:51:14;;;;;;;15.23;11.43;;;1.00;98.00;;;-0.13;91.93;102292.66;5024179;28;20231;-74
2023/01/22 00:53:43;;;;;;;15.43;11.17;;;1.00;98.10;;;-0.10;91.90;102292.56;5027612;28;20237;-74
2023/01/22 00:56:14;;;;;;;16.53;11.83;;;1.00;98.00;;;-0.07;91.65;102292.47;5028997;28;20213;-74
2023/01/22 00:58:43;;;;;;;14.50;11.23;;;1.00;98.00;;;-0.05;91.06;102295.88;5029307;28;20706;-74
2023/01/22 01:01:13;;;;;;;13.73;10.70;;;1.10;97.90;;;-0.06;90.64;102291.53;5029468;28;20210;-74
2023/01/22 01:03:41;;;;;;;14.90;11.13;;;1.00;97.80;;;-0.10;91.36;102289.91;5029449;28;20225;-74
2023/01/22 01:06:14;;;;;;;14.80;9.97;;;1.00;97.90;;;-0.09;90.83;102289.00;5029284;28;20207;-74
2023/01/22 01:08:44;;;;;;;14.50;11.03;;;0.90;98.00;;;-0.12;91.52;102278.59;5029343;28;20226;-74
2023/01/22 01:11:16;;;;;;;17.50;11.40;;;1.00;98.00;;;-0.14;90.81;102291.78;5029213;28;20296;-74
2023/01/22 01:13:45;;;;;;;16.37;10.70;;;1.00;98.20;;;-0.15;90.77;102294.50;5029367;28;20738;-74
2023/01/22 01:16:16;;;;;;;14.17;9.87;;;1.00;98.20;;;-0.13;90.98;102284.75;5029532;28;20206;-75
2023/01/22 01:18:45;;;;;;;14.13;10.07;;;0.90;98.30;;;-0.15;91.36;102276.06;5029193;28;20711;-75
2023/01/22 01:21:14;;;;;;;13.17;10.47;;;1.00;98.40;;;-0.15;92.24;102276.94;5029493;28;20214;-74
2023/01/22 01:23:42;;;;;;;15.03;10.40;;;1.00;98.30;;;-0.13;91.68;102271.59;5029640;28;20206;-74
2023/01/22 01:26:16;;;;;;;14.07;10.30;;;1.00;98.40;;;-0.13;92.33;102271.59;5029231;28;20217;-74
2023/01/22 01:28:45;;;;;;;14.27;10.27;;;1.00;98.50;;;-0.12;91.25;102273.34;5029940;28;20226;-74
2023/01/22 01:31:15;;;;;;;14.33;9.40;;;1.00;98.30;;;-0.14;91.81;102281.28;5029228;28;20703;-75
2023/01/22 01:33:44;;;;;;;16.13;9.90;;;1.00;98.30;;;-0.13;91.11;102271.59;5029627;28;20260;-74
2023/01/22 01:36:15;;;;;;;12.27;9.43;;;1.00;98.30;;;-0.13;91.69;102268.97;5029932;28;20202;-74
2023/01/22 01:38:47;;;;;;;12.40;8.67;;;1.00;98.40;;;-0.12;91.48;102262.81;5033295;28;20237;-74
2023/01/22 01:41:20;;;;;;;12.43;8.47;;;1.00;98.40;;;-0.09;92.13;102263.56;5033226;28;20206;-74
2023/01/22 01:44:09;;;;;;;11.57;8.80;;;1.00;98.40;;;-0.05;90.78;102265.16;5032962;28;20231;-74
2023/01/22 01:46:44;;;;;;;10.63;7.80;;;1.10;98.30;;;-0.02;91.50;102266.81;5032824;28;20218;-73
2023/01/22 01:49:22;;;;;;;11.87;8.10;;;1.10;98.30;;;-0.04;91.65;102271.28;5032876;28;20261;-74
2023/01/22 01:51:55;;;;;;;12.27;8.57;;;1.10;98.20;;;-0.08;90.70;102267.03;5032764;28;20226;-74
2023/01/22 01:54:25;;;;;;;10.93;8.20;;;1.00;98.30;;;-0.04;90.74;102268.66;5032855;28;20199;-74
2023/01/22 01:57:04;;;;;;;11.10;8.33;;;1.10;98.30;;;-0.08;91.20;102269.69;5032604;28;20210;-74
2023/01/22 01:59:34;;;;;;;10.80;7.57;;;1.10;98.30;;;-0.09;91.33;102265.31;5032580;28;20583;-75
2023/01/22 02:02:03;;;;;;;12.47;8.27;;;1.00;98.40;;;-0.09;91.86;102263.56;5032446;28;20206;-75
2023/01/22 02:04:32;;;;;;;12.27;7.97;;;1.00;98.40;;;-0.06;90.79;102271.34;5032672;28;20207;-73
2023/01/22 02:07:00;;;;;;;12.30;7.90;;;1.10;98.40;;;-0.05;91.59;102270.44;5032591;28;20218;-75
2023/01/22 02:09:28;;;;;;;9.23;7.60;;;1.10;98.30;;;-0.04;91.23;102271.28;5032828;28;20231;-75
2023/01/22 02:11:58;;;;;;;10.17;7.20;;;1.10;98.30;;;0.03;91.22;102272.78;5032327;28;20226;-74
2023/01/22 02:14:31;;;;;;;12.57;8.50;;;1.10;98.20;;;-0.05;91.87;102275.69;5032451;28;20206;-74
2023/01/22 02:17:01;;;;;;;11.40;8.33;;;1.10;98.20;;;-0.06;91.91;102267.84;5032255;28;20191;-74
2023/01/22 02:19:29;;;;;;;10.57;7.20;;;1.10;98.30;;;-0.04;91.00;102271.28;5032535;28;20288;-74
2023/01/22 02:21:59;;;;;;;9.53;7.17;;;1.10;98.30;;;0.00;90.63;102272.91;5032220;28;20663;-74
2023/01/22 02:24:30;;;;;;;9.30;7.03;;;1.10;98.40;;;-0.03;90.65;102273.00;5032176;28;20206;-74
2023/01/22 02:26:58;;;;;;;9.93;7.13;;;1.10;98.30;;;-0.02;91.44;102272.09;5032223;28;20215;-74
2023/01/22 02:29:27;;;;;;;10.63;7.17;;;1.10;98.30;;;0.02;91.25;102265.78;5032195;28;20296;-74
2023/01/22 02:31:55;;;;;;;11.87;7.00;;;1.10;98.40;;;0.00;91.11;102267.63;5031824;28;20227;-74
2023/01/22 02:34:24;;;;;;;10.67;7.13;;;1.10;98.20;;;-0.07;91.72;102266.97;5032101;28;20596;-75
2023/01/22 02:36:52;;;;;;;9.83;6.90;;;1.10;98.30;;;-0.04;92.05;102266.03;5031581;28;20202;-74
2023/01/22 02:39:22;;;;;;;10.23;7.50;;;1.10;98.40;;;-0.02;91.66;102261.56;5031842;28;20233;-73
2023/01/22 02:41:51;;;;;;;10.30;7.33;;;1.10;98.40;;;-0.06;91.20;102267.84;5031583;28;20583;-74
2023/01/22 02:44:19;;;;;;;9.60;7.30;;;1.10;98.40;;;-0.07;90.76;102266.16;5031673;28;20619;-74
2023/01/22 02:46:48;;;;;;;9.90;7.20;;;1.10;98.40;;;-0.08;92.12;102259.16;5031701;28;20293;-74
2023/01/22 02:49:16;;;;;;;8.10;7.30;;;1.10;98.50;;;-0.05;92.29;102264.31;5030697;28;20226;-74
2023/01/22 02:51:44;;;;;;;9.97;7.60;;;1.10;98.50;;;-0.05;92.19;102259.91;5031177;28;20223;-74
2023/01/22 02:54:13;;;;;;;8.47;7.30;;;1.10;98.40;;;-0.07;90.88;102260.88;5031361;28;20207;-75
2023/01/22 02:56:42;;;;;;;8.40;7.13;;;1.10;98.50;;;-0.06;91.12;102262.56;5031765;28;20211;-73
2023/01/22 02:59:10;;;;;;;8.20;7.23;;;1.10;98.50;;;-0.06;91.54;102262.56;5031341;28;20935;-73
2023/01/22 03:01:38;;;;;;;8.50;7.53;;;1.10;98.60;;;-0.05;92.28;102259.91;5031389;28;20199;-74
2023/01/22 03:04:10;;;;;;;8.77;7.87;;;1.10;98.60;;;-0.07;92.07;102255.63;5031383;28;20272;-74
2023/01/22 03:06:41;;;;;;;9.80;7.70;;;1.00;98.60;;;-0.06;91.46;102252.91;5030955;28;20214;-74
2023/01/22 03:09:11;;;;;;;9.73;7.50;;;1.10;98.60;;;-0.07;91.34;102256.44;5031434;28;20235;-75
2023/01/22 03:11:44;;;;;;;10.13;7.33;;;1.10;98.60;;;-0.08;91.97;102259.16;5031104;28;20276;-73
2023/01/22 03:22:32;;;;;;;10.53;7.70;;;1.10;98.70;;;-0.07;91.63;102245.09;5031570;28;20191;-74
2023/01/22 03:25:00;;;;;;;9.77;7.43;;;1.10;98.70;;;-0.03;91.98;102258.06;5030799;28;20206;-75
2023/01/22 03:27:31;;;;;;;9.87;8.00;;;1.10;98.70;;;-0.02;91.24;102261.56;5031233;28;20276;-75
2023/01/22 03:29:59;;;;;;;8.70;7.33;;;1.10;98.70;;;0.02;91.61;102259.66;5030781;28;20651;-74
2023/01/22 03:32:28;;;;;;;10.10;7.10;;;1.10;98.60;;;-0.01;92.22;102253.63;5030836;28;20646;-73
2023/01/22 03:34:56;;;;;;;9.03;7.33;;;1.10;98.60;;;-0.02;91.32;102259.78;5030490;28;20721;-73
2023/01/22 03:37:25;;;;;;;10.27;7.47;;;1.10;98.60;;;-0.08;91.32;102252.13;5030707;28;20246;-74
2023/01/22 03:39:53;;;;;;;7.97;6.53;;;1.10;98.70;;;-0.04;91.47;102255.50;5030819;28;20226;-74
2023/01/22 03:42:24;;;;;;;9.67;6.53;;;1.10;98.90;;;-0.02;92.01;102251.03;5030945;28;20280;-74
2023/01/22 03:44:53;;;;;;;8.27;7.07;;;1.10;98.80;;;-0.05;92.06;102259.03;5030719;28;20211;-73
2023/01/22 03:47:21;;;;;;;7.83;6.53;;;1.10;98.80;;;-0.05;91.73;102252.00;5030129;28;20225;-74
2023/01/22 03:49:49;;;;;;;7.80;6.37;;;1.10;98.90;;;-0.03;91.18;102260.69;5030754;28;20222;-73
2023/01/22 03:52:18;;;;;;;7.00;6.30;;;1.10;98.80;;;-0.04;92.07;102252.88;5030535;28;20292;-74
2023/01/22 03:54:46;;;;;;;8.33;6.57;;;1.10;98.70;;;-0.05;92.39;102259.03;5028158;28;20668;-73
2023/01/22 03:57:14;;;;;;;7.93;6.20;;;1.10;98.80;;;-0.04;91.69;102255.50;5029593;28;20206;-74
2023/01/22 03:59:42;;;;;;;7.83;6.43;;;1.10;98.80;;;-0.05;91.44;102253.78;5030081;28;20218;-73
2023/01/22 04:02:12;;;;;;;7.47;5.97;;;1.10;98.70;;;-0.05;91.54;102264.31;5030644;28;20659;-74
2023/01/22 04:04:43;;;;;;;8.37;5.77;;;1.10;98.80;;;-0.04;91.74;102258.13;5030271;28;20710;-73
2023/01/22 04:07:11;;;;;;;6.90;5.90;;;1.10;98.80;;;-0.06;92.16;102263.44;5030190;28;20690;-74
2023/01/22 04:09:39;;;;;;;8.33;6.17;;;1.10;98.80;;;-0.11;92.24;102251.38;5030569;28;20309;-74
2023/01/22 04:12:08;;;;;;;7.70;6.20;;;1.00;98.90;;;-0.12;92.07;102266.28;5029947;28;20742;-73
2023/01/22 04:14:36;;;;;;;8.97;6.37;;;1.00;99.00;;;-0.13;91.97;102261.94;5030530;28;20256;-75
2023/01/22 04:17:04;;;;;;;9.80;6.77;;;1.00;99.10;;;-0.14;91.89;102267.28;5029580;28;20215;-74
2023/01/22 04:19:33;;;;;;;9.30;6.57;;;1.00;99.10;;;-0.13;92.18;102261.94;5029777;28;20234;-74
2023/01/22 04:22:01;;;;;;;7.50;6.70;;;1.00;99.10;;;-0.12;92.80;102263.66;5030081;28;20218;-74
2023/01/22 04:24:29;;;;;;;8.87;7.00;;;1.00;99.20;;;-0.12;92.52;102262.81;5030325;28;20207;-74
2023/01/22 04:26:57;;;;;;;8.50;6.93;;;1.00;99.20;;;-0.13;92.02;102267.19;5029757;28;20207;-73
2023/01/22 04:29:25;;;;;;;9.33;6.33;;;1.00;99.20;;;-0.11;92.97;102270.66;5029724;28;20710;-74
2023/01/22 04:31:53;;;;;;;8.07;6.90;;;1.00;99.20;;;-0.12;91.89;102266.28;5029957;28;20202;-73
2023/01/22 04:34:22;;;;;;;8.83;7.07;;;1.00;99.20;;;-0.10;92.01;102255.69;5030202;28;20276;-73
2023/01/22 04:36:51;;;;;;;7.83;6.90;;;1.00;99.30;;;-0.10;92.66;102258.31;5029706;28;20210;-74
2023/01/22 04:39:19;;;;;;;10.70;7.67;;;1.00;99.20;;;-0.13;92.98;102267.19;5029885;28;20664;-73
2023/01/22 04:41:47;;;;;;;9.37;7.30;;;1.00;99.20;;;-0.13;92.30;102268.97;5029816;28;20199;-74
2023/01/22 04:44:15;;;;;;;8.77;6.83;;;1.00;99.30;;;-0.07;92.14;102271.41;5029486;28;20558;-73
2023/01/22 04:46:43;;;;;;;8.03;6.83;;;1.00;99.40;;;-0.05;92.06;102264.31;5029541;28;20218;-73
2023/01/22 04:49:11;;;;;;;7.60;6.80;;;1.10;99.30;;;-0.07;92.44;102266.97;5029302;28;20773;-74
2023/01/22 04:51:39;;;;;;;7.57;6.77;;;1.00;99.20;;;-0.08;92.14;102256.50;5029787;28;20264;-73
2023/01/22 04:54:09;;;;;;;10.97;7.33;;;1.00;99.30;;;-0.08;91.62;102269.69;5029721;28;20301;-74
2023/01/22 04:56:37;;;;;;;9.17;7.47;;;1.00;99.30;;;-0.09;91.92;102266.19;5028319;28;20701;-74
2023/01/22 04:59:05;;;;;;;7.87;6.83;;;1.00;99.30;;;-0.10;91.68;102266.22;5029291;28;20238;-75
2023/01/22 05:01:33;;;;;;;9.47;7.23;;;1.00;99.30;;;-0.12;91.84;102262.81;5029433;28;20209;-74
2023/01/22 05:04:03;;;;;;;10.43;7.07;;;1.00;99.40;;;-0.12;92.54;102265.44;5029350;28;20711;-73
2023/01/22 05:06:31;;;;;;;10.37;7.40;;;1.00;99.50;;;-0.14;93.25;102273.38;5029103;28;20214;-74
2023/01/22 05:08:59;;;;;;;10.77;7.30;;;1.00;99.60;;;-0.12;93.28;102268.06;5029328;28;20246;-75
2023/01/22 05:11:28;;;;;;;7.73;6.93;;;1.00;99.60;;;-0.10;92.71;102266.22;5028992;28;20210;-73
2023/01/22 05:13:56;;;;;;;8.43;6.90;;;1.00;99.50;;;-0.09;92.16;102265.31;5029033;28;20233;-73
2023/01/22 05:16:25;;;;;;;8.07;6.73;;;1.00;99.50;;;-0.07;91.80;102268.78;5029284;28;20206;-73
2023/01/22 05:18:53;;;;;;;7.97;6.87;;;1.00;99.80;;;-0.07;92.67;102271.41;5029309;28;20226;-73
2023/01/22 05:21:21;;;;;;;8.27;6.97;;;1.00;99.40;;;-0.10;92.16;102277.63;5029332;28;20213;-73
2023/01/22 05:23:49;;;;;;;8.50;6.57;;;1.00;99.50;;;-0.12;92.45;102268.94;5029466;28;20209;-74
2023/01/22 05:26:17;;;;;;;9.40;7.30;;;1.00;99.50;;;-0.16;92.13;102272.59;5028983;28;20206;-73
2023/01/22 05:28:47;;;;;;;8.77;7.03;;;1.00;99.90;;;-0.13;93.33;102277.72;5029204;28;20222;-73
2023/01/22 05:31:15;;;;;;;8.63;6.57;;;1.00;99.70;;;-0.16;92.48;102271.72;5029482;28;20210;-73
2023/01/22 05:33:43;;;;;;;8.30;6.70;;;1.00;99.70;;;-0.14;93.51;102269.91;5029003;28;20273;-73
2023/01/22 05:36:12;;;;;;;9.37;7.47;;;1.00;99.80;;;-0.17;93.15;102272.66;5029104;28;20641;-73
2023/01/22 05:38:40;;;;;;;9.70;7.07;;;1.00;99.80;;;-0.14;92.27;102275.19;5029000;28;20234;-74
2023/01/22 05:41:08;;;;;;;8.47;7.13;;;1.00;99.90;;;-0.15;92.60;102279.56;5029310;28;20296;-74
2023/01/22 05:43:37;;;;;;;9.77;7.63;;;1.00;99.80;;;-0.13;92.73;102282.13;5028936;28;20210;-74
2023/01/22 05:46:08;;;;;;;9.07;7.20;;;1.00;99.90;;;-0.15;92.91;102283.97;5028394;28;20551;-73
2023/01/22 05:48:36;;;;;;;12.37;7.80;;;1.00;99.80;;;-0.17;92.26;102291.06;5028858;28;20884;-73
2023/01/22 05:51:06;;;;;;;8.73;6.93;;;1.00;99.90;;;-0.17;93.68;102285.81;5029077;28;20206;-74
2023/01/22 05:53:35;;;;;;;10.60;7.73;;;1.00;99.90;;;-0.16;92.81;102291.00;5029353;28;20314;-73
2023/01/22 05:56:06;;;;;;;9.10;6.93;;;1.00;99.90;;;-0.15;92.93;102294.50;5028455;28;20187;-74
2023/01/22 05:58:34;;;;;;;8.77;7.53;;;1.00;99.90;;;-0.13;93.46;102292.66;5028919;28;20227;-73
2023/01/22 06:01:02;;;;;;;9.23;7.40;;;1.00;99.90;;;-0.13;93.45;102297.94;5029049;28;20227;-74
2023/01/22 06:03:31;;;;;;;10.93;8.03;;;1.00;99.90;;;-0.13;92.46;102298.78;5028964;28;20199;-73
2023/01/22 06:06:02;;;;;;;11.00;8.07;;;1.00;99.90;;;-0.11;92.77;102298.75;5028335;28;20637;-73
2023/01/22 06:08:30;;;;;;;9.70;7.83;;;1.00;99.90;;;-0.12;92.41;102299.66;5028483;28;20223;-76
2023/01/22 06:11:02;;;;;;;8.87;7.73;;;1.00;99.90;;;-0.13;92.40;102303.19;5028569;28;20257;-75
2023/01/22 06:13:30;;;;;;;11.93;7.57;;;1.00;99.90;;;-0.11;93.08;102302.25;5028564;28;20230;-74
2023/01/22 06:15:59;;;;;;;9.80;8.10;;;1.00;99.90;;;-0.10;92.43;102305.72;5008825;28;20215;-74
2023/01/22 06:18:28;;;;;;;11.07;8.00;;;1.00;99.90;;;-0.13;92.05;102303.19;5009444;28;20251;-74
2023/01/22 06:21:01;;;;;;;10.30;8.20;;;1.00;99.90;;;-0.10;92.94;102305.72;5008845;28;20212;-74
2023/01/22 06:23:29;;;;;;;11.37;7.83;;;1.00;99.90;;;-0.12;92.82;102310.19;5010047;28;20188;-74
2023/01/22 06:26:00;;;;;;;11.40;8.57;;;1.00;99.90;;;-0.12;93.51;102310.19;5012396;28;20203;-75
2023/01/22 06:28:29;;;;;;;12.70;8.20;;;1.00;99.90;;;-0.13;92.30;102308.47;5012312;28;20231;-74
2023/01/22 06:31:04;;;;;;;9.37;8.37;;;1.00;99.90;;;-0.09;92.63;102315.34;5012238;28;20254;-74
2023/01/22 06:33:33;;;;;;;10.60;7.93;;;1.00;99.90;;;-0.10;93.37;102310.97;5012134;28;20218;-75
2023/01/22 06:36:04;;;;;;;9.77;8.03;;;1.00;99.90;;;-0.09;93.33;102305.66;5012130;28;20253;-75
2023/01/22 06:38:33;;;;;;;10.90;8.03;;;1.00;99.90;;;-0.08;91.94;102311.81;5012575;28;20231;-75
2023/01/22 06:41:01;;;;;;;10.20;8.33;;;1.00;99.90;;;-0.06;91.92;102321.34;5012201;28;20230;-74
2023/01/22 06:43:29;;;;;;;11.13;8.30;;;1.00;99.90;;;-0.10;93.18;102313.59;5012083;28;20250;-75
2023/01/22 06:45:58;;;;;;;9.90;8.57;;;1.00;99.80;;;-0.09;91.93;102320.59;5011725;28;20270;-76
2023/01/22 06:48:26;;;;;;;11.40;8.47;;;1.00;99.90;;;-0.08;92.43;102327.59;5020347;28;20714;-76
2023/01/22 06:50:58;;;;;;;9.47;7.80;;;1.00;99.90;;;-0.05;92.48;102330.13;5031468;28;20600;-75
2023/01/22 06:53:28;;;;;;;10.30;8.33;;;1.10;99.90;;;-0.06;91.89;102325.75;5031650;28;20214;-74
2023/01/22 06:55:59;;;;;;;9.73;8.37;;;1.00;99.80;;;-0.05;92.56;102332.75;5031493;28;20203;-75
2023/01/22 06:58:28;;;;;;;9.93;8.33;;;1.00;99.90;;;-0.03;92.47;102337.03;5031587;28;20595;-73
2023/01/22 07:01:01;;;;;;;10.10;7.63;;;1.10;99.90;;;-0.01;91.81;102345.75;5031433;28;20202;-76
2023/01/22 07:03:29;;;;;;;10.83;7.30;;;1.10;99.80;;;0.02;92.43;102342.16;5031753;28;20198;-74
2023/01/22 07:05:58;;;;;;;10.37;8.27;;;1.10;99.80;;;0.00;91.57;102346.63;5031073;28;20206;-74
2023/01/22 07:08:29;;;;;;;10.87;7.70;;;1.00;99.70;;;-0.01;92.82;102352.78;5031703;28;20257;-74
2023/01/22 07:10:57;;;;;;;9.07;7.90;;;1.10;99.70;;;-0.03;92.87;102347.56;5031546;28;20194;-74
2023/01/22 07:13:26;;;;;;;10.43;7.80;;;1.10;99.70;;;-0.05;91.66;102354.69;5033082;28;20206;-73
2023/01/22 07:15:54;;;;;;;9.10;7.57;;;1.10;99.80;;;-0.06;92.25;102360.84;5033045;28;20272;-74
2023/01/22 07:18:23;;;;;;;8.87;7.73;;;1.00;99.90;;;-0.03;93.01;102357.25;5032183;28;20612;-74
2023/01/22 07:20:51;;;;;;;9.30;7.17;;;1.00;99.90;;;-0.02;91.87;102358.97;5033243;28;20213;-75
2023/01/22 07:23:19;;;;;;;12.53;7.90;;;1.10;99.90;;;-0.04;91.86;102360.81;5032657;28;20211;-74
2023/01/22 07:25:49;;;;;;;9.57;7.60;;;1.10;99.70;;;-0.02;91.94;102367.72;5031664;28;20260;-76
2023/01/22 07:28:17;;;;;;;10.10;7.77;;;1.10;99.80;;;-0.03;91.70;102359.88;5032015;28;20211;-75
2023/01/22 07:30:45;;;;;;;11.20;7.70;;;1.10;99.80;;;-0.05;91.81;102366.97;5031200;28;20828;-74
2023/01/22 07:33:16;;;;;;;9.27;7.40;;;1.00;99.80;;;-0.02;92.61;102365.09;5031040;28;20805;-75
2023/01/22 07:35:44;;;;;;;7.93;6.90;;;1.10;99.90;;;-0.04;92.06;102369.56;5029989;28;20714;-75
2023/01/22 07:38:12;;;;;;;9.20;7.30;;;1.10;99.90;;;-0.05;92.26;102369.59;5030997;28;20233;-75
2023/01/22 07:40:40;;;;;;;10.63;8.13;;;1.10;99.80;;;-0.02;92.65;102370.34;5030997;28;20207;-75
2023/01/22 07:43:13;;;;;;;10.00;7.67;;;1.10;99.90;;;-0.03;93.00;102375.66;5030977;28;20222;-75
2023/01/22 07:45:41;;;;;;;8.47;7.30;;;1.10;99.80;;;0.00;92.02;102372.97;5030829;28;20694;-75
2023/01/22 07:48:10;;;;;;;9.43;7.40;;;1.10;99.90;;;-0.05;92.30;102380.13;5030186;28;20207;-76
2023/01/22 07:50:39;;;;;;;9.43;7.60;;;1.00;99.80;;;-0.06;92.50;102379.28;5030724;28;20294;-75
2023/01/22 07:53:10;;;;;;;12.00;8.43;;;1.10;99.90;;;-0.05;92.58;102390.66;5030707;28;20229;-74
2023/01/22 07:55:40;;;;;;;12.10;7.97;;;1.00;99.90;;;-0.04;92.67;102392.41;5030093;28;20237;-77
2023/01/22 07:58:11;;;;;;;9.50;7.60;;;1.10;99.90;;;-0.05;92.88;102391.53;5029853;28;20207;-75
2023/01/22 08:00:39;;;;;;;11.10;8.13;;;1.00;99.90;;;-0.01;93.13;102392.28;5030560;28;20190;-75
2023/01/22 08:03:10;;;;;;;10.07;7.87;;;1.10;99.90;;;-0.02;92.16;102390.56;5030594;28;20230;-75
2023/01/22 08:05:40;;;;;;;12.93;8.47;;;1.10;99.90;;;-0.02;91.94;102401.09;5030634;28;20206;-74
2023/01/22 08:08:14;;;;;;;11.60;7.77;;;1.10;99.90;;;-0.02;92.01;102390.56;5030313;28;20210;-74
2023/01/22 08:10:43;;;;;;;11.47;8.00;;;1.10;99.90;;;-0.02;92.39;102390.56;5030198;28;20190;-73
2023/01/22 08:13:13;;;;;;;11.33;8.33;;;1.10;99.90;;;-0.06;91.99;102397.69;5029999;28;20207;-74
2023/01/22 08:15:42;;;;;;;13.17;8.80;;;1.00;99.90;;;-0.04;92.47;102398.53;5029843;28;20580;-76
2023/01/22 08:18:11;;;;;;;10.67;8.40;;;1.10;99.90;;;-0.04;92.75;102408.19;5030300;28;20210;-74
2023/01/22 08:20:39;;;;;;;10.30;8.43;;;1.10;99.90;;;-0.08;92.23;102398.69;5029705;28;20218;-75
2023/01/22 08:23:07;;;;;;;15.40;9.33;;;1.00;99.90;;;-0.07;92.85;102406.50;5029723;28;20210;-75
2023/01/22 08:25:35;;;;;;;11.23;8.90;;;1.10;99.90;;;-0.07;92.64;102400.41;5029567;28;20600;-75
2023/01/22 08:28:06;;;;;;;12.47;9.87;;;1.00;99.90;;;-0.09;93.55;102403.06;5029976;28;20277;-75
2023/01/22 08:30:36;;;;;;;11.67;9.20;;;1.00;99.90;;;-0.09;92.53;102396.94;5030384;28;20188;-74
2023/01/22 08:33:14;;;;;;;11.40;8.80;;;1.00;99.90;;;-0.05;92.29;102409.09;5029890;28;20191;-73
2023/01/22 08:35:42;;;;;;;10.50;8.33;;;1.00;99.90;;;-0.01;93.40;102408.09;5029067;28;20230;-74
2023/01/22 08:38:10;;;;;;;11.40;8.90;;;1.10;99.90;;;-0.05;93.29;102407.31;5029423;28;20214;-73
2023/01/22 08:40:39;;;;;;;11.83;9.40;;;1.10;99.90;;;-0.07;92.58;102403.88;5029752;28;20207;-75
2023/01/22 08:43:07;;;;;;;11.00;8.97;;;1.00;99.90;;;-0.03;93.00;102399.38;5029569;28;20229;-75
2023/01/22 08:45:36;;;;;;;10.70;8.60;;;1.10;99.90;;;-0.01;93.42;102410.72;5028702;28;20603;-74
2023/01/22 08:48:05;;;;;;;13.60;8.97;;;1.10;99.90;;;-0.02;92.97;102407.22;5029380;28;20289;-74
2023/01/22 08:50:33;;;;;;;9.77;8.47;;;1.10;99.90;;;0.03;93.43;102414.97;5029711;28;20213;-75
2023/01/22 08:53:01;;;;;;;11.03;8.40;;;1.10;99.90;;;0.04;92.48;102418.44;5029719;28;20206;-74
2023/01/22 08:55:29;;;;;;;10.67;8.83;;;1.10;99.90;;;0.07;92.23;102418.38;5029714;28;20223;-74
2023/01/22 08:57:58;;;;;;;10.13;8.10;;;1.20;99.90;;;0.07;93.26;102424.47;5029126;28;20191;-74
2023/01/22 09:00:26;;;;;;;10.53;8.03;;;1.20;99.90;;;0.07;92.74;102427.09;5029579;28;20226;-74
2023/01/22 09:02:59;;;;;;;10.53;8.37;;;1.20;99.90;;;0.06;93.12;102420.13;5029541;28;20214;-73
2023/01/22 09:05:28;;;;;;;10.60;8.47;;;1.20;99.90;;;0.11;93.03;102428.72;5029177;28;20214;-75
2023/01/22 09:07:56;;;;;;;13.90;8.40;;;1.20;99.90;;;0.11;93.07;102426.09;5029362;28;20203;-74
2023/01/22 09:10:24;;;;;;;12.70;8.47;;;1.20;99.90;;;0.16;91.80;102432.06;5029400;28;20237;-74
2023/01/22 09:12:52;;;;;;;10.17;8.23;;;1.30;99.90;;;0.15;91.79;102430.34;5028598;28;20288;-74
2023/01/22 09:15:20;;;;;;;12.90;9.03;;;1.30;99.80;;;0.20;91.98;102433.69;5028091;28;20226;-74
2023/01/22 09:17:48;;;;;;;10.50;8.43;;;1.30;99.80;;;0.24;92.51;102439.72;5027032;28;20207;-74
2023/01/22 09:20:18;;;;;;;10.43;8.30;;;1.30;99.80;;;0.26;91.92;102446.63;5027018;28;20226;-74
2023/01/22 09:22:48;;;;;;;10.37;8.87;;;1.30;99.70;;;0.31;92.55;102446.50;5027726;28;20273;-73
2023/01/22 09:25:17;;;;;;;9.87;8.17;;;1.40;99.60;;;0.33;91.84;102447.28;5028443;28;20686;-74
2023/01/22 09:27:45;;;;;;;11.27;9.03;;;1.40;99.60;;;0.35;91.79;102454.22;5026928;28;20222;-74
2023/01/22 09:30:13;;;;;;;11.10;8.40;;;1.40;99.50;;;0.39;91.79;102460.22;5024023;28;20227;-74
2023/01/22 09:32:41;;;;;;;9.23;8.10;;;1.50;99.50;;;0.42;91.38;102450.44;5028915;28;20218;-74
2023/01/22 09:35:10;;;;;;;11.70;8.57;;;1.50;99.40;;;0.40;91.14;102452.28;5029070;28;20226;-74
2023/01/22 09:37:40;;;;;;;9.97;8.33;;;1.50;99.30;;;0.42;91.78;102450.44;5028940;28;20202;-76
2023/01/22 09:40:23;;;;;;;10.43;8.53;;;1.50;99.40;;;0.43;91.01;102452.19;5028968;28;20912;-74
2023/01/22 09:42:54;;;;;;;11.40;8.80;;;1.50;99.30;;;0.46;92.00;102456.47;5028293;28;20616;-74
2023/01/22 09:45:26;;;;;;;8.77;7.73;;;1.50;99.40;;;0.43;91.53;102453.94;5027500;28;20417;-73
2023/01/22 09:48:01;;;;;;;10.47;8.57;;;1.50;99.30;;;0.44;91.10;102467.09;5029226;28;20211;-73
2023/01/22 09:50:34;;;;;;;9.83;7.63;;;1.50;99.40;;;0.48;91.12;102465.16;5029048;28;20233;-73
2023/01/22 09:53:07;;;;;;;11.93;8.33;;;1.60;99.50;;;0.45;91.69;102463.50;5029083;28;20218;-73
2023/01/22 09:55:44;;;;;;;9.87;7.90;;;1.50;99.40;;;0.40;91.39;102457.56;5024907;28;20223;-74
2023/01/22 09:58:18;;;;;;;10.37;8.50;;;1.50;99.40;;;0.46;91.89;102462.59;5034174;28;20202;-73
2023/01/22 10:00:51;;;;;;;10.40;8.60;;;1.50;99.40;;;0.49;92.04;102457.22;5035595;28;20198;-74
2023/01/22 10:03:26;;;;;;;9.07;7.80;;;1.60;99.40;;;0.51;91.03;102458.00;5035225;28;20191;-75
2023/01/22 10:06:00;;;;;;;10.13;8.63;;;1.60;99.40;;;0.52;90.96;102466.78;5034110;28;20210;-74
2023/01/22 10:08:37;;;;;;;11.43;7.87;;;1.60;99.30;;;0.57;91.02;102458.72;5033274;28;20679;-73
2023/01/22 10:11:08;;;;;;;9.00;7.73;;;1.60;99.30;;;0.59;91.90;102462.16;5032611;28;20198;-73
2023/01/22 10:13:39;;;;;;;11.87;8.40;;;1.70;99.20;;;0.59;91.03;102470.06;5033038;28;20561;-74
2023/01/22 10:16:09;;;;;;;9.80;7.80;;;1.70;99.20;;;0.58;91.10;102463.09;5032352;28;20230;-73
2023/01/22 10:18:55;;;;;;;9.97;7.63;;;1.70;99.10;;;0.57;90.80;102456.09;5032765;28;20234;-73
2023/01/22 10:21:33;;;;;;;9.97;7.80;;;1.60;99.10;;;0.59;90.88;102448.97;5032672;28;20199;-73
2023/01/22 10:24:03;;;;;;;11.47;7.90;;;1.70;99.20;;;0.61;90.71;102460.34;5032708;28;20210;-73
2023/01/22 10:26:37;;;;;;;9.70;8.00;;;1.70;99.10;;;0.61;91.04;102455.06;5032282;28;20210;-73
2023/01/22 10:29:09;;;;;;;9.10;7.77;;;1.70;99.10;;;0.60;91.55;102453.34;5032783;28;20225;-73
2023/01/22 10:31:40;;;;;;;10.57;8.00;;;1.70;99.10;;;0.60;91.54;102458.63;5032590;28;20221;-74
2023/01/22 10:34:16;;;;;;;8.53;7.60;;;1.70;99.30;;;0.63;91.44;102463.78;5031957;28;20656;-75